Terminal Aerodrome Forecast
Issued by NWS

Current Version | Previous Version | Text Only | Print | Product List | Glossary On
Versions: 1 2 3 4 5 6 7 8 9 10 11 12 13 14 15 16 17 18 19 20 21 22 23 24 25 26 27 28 29 30 31 32
000
FTAK31 PANC 011741
TAFAGK
TAF
PAGK 011741Z 0118/0218 VRB05KT P6SM FEW080
     FM020000 VRB05KT P6SM VCSH SCT050 BKN080
     FM020700 21005KT P6SM FEW050 SCT090=

USA.gov is the U.S. government's official web portal to all federal, state and local government web resources and services.